createdAt,value
2023-08-04T00:00:34.158Z,20.39
2023-08-04T00:03:24.713Z,20.40
2023-08-04T00:05:54.182Z,20.40
2023-08-04T00:08:23.312Z,20.40
2023-08-04T00:10:52.715Z,20.40
2023-08-04T00:13:21.738Z,20.42
2023-08-04T00:15:51.132Z,20.40
2023-08-04T00:18:20.195Z,20.39
2023-08-04T00:20:51.083Z,20.38
2023-08-04T00:23:20.275Z,20.38
2023-08-04T00:25:49.724Z,20.35
2023-08-04T00:28:18.793Z,20.35
2023-08-04T00:30:48.191Z,20.35
2023-08-04T00:33:17.277Z,20.36
2023-08-04T00:35:46.581Z,20.35
2023-08-04T00:38:17.008Z,20.36
2023-08-04T00:40:46.368Z,20.40
2023-08-04T00:43:15.454Z,20.39
2023-08-04T00:45:44.852Z,20.40
2023-08-04T00:48:13.933Z,20.41
2023-08-04T00:50:43.301Z,20.38
2023-08-04T00:53:12.583Z,20.39
2023-08-04T00:55:44.341Z,20.42
2023-08-04T00:58:13.434Z,20.43
2023-08-04T01:00:42.867Z,20.42
2023-08-04T01:03:12.373Z,20.43
2023-08-04T01:05:43.477Z,20.45
2023-08-04T01:08:15.658Z,20.45
2023-08-04T01:10:48.950Z,20.45
2023-08-04T01:13:21.199Z,20.43
2023-08-04T01:15:50.671Z,20.44
2023-08-04T01:18:21.229Z,20.43
2023-08-04T01:20:50.744Z,20.44
2023-08-04T01:23:21.159Z,20.40
2023-08-04T01:25:50.560Z,20.40
2023-08-04T01:28:19.585Z,20.40
2023-08-04T01:30:49.707Z,20.37
2023-08-04T01:33:18.878Z,20.38
2023-08-04T01:35:48.259Z,20.36
2023-08-04T01:38:17.309Z,20.35
2023-08-04T01:40:48.088Z,20.33
2023-08-04T01:43:17.127Z,20.32
2023-08-04T01:45:46.476Z,20.32
2023-08-04T01:48:15.516Z,20.30
2023-08-04T01:50:44.920Z,20.29
2023-08-04T01:53:14.048Z,20.29
2023-08-04T01:55:43.457Z,20.24
2023-08-04T01:58:13.932Z,20.25
2023-08-04T02:00:43.345Z,20.23
2023-08-04T02:03:12.454Z,20.22
2023-08-04T02:05:46.905Z,20.22
2023-08-04T02:08:15.910Z,20.22
2023-08-04T02:10:49.295Z,20.19
2023-08-04T02:13:19.755Z,20.19
2023-08-04T02:15:49.180Z,20.19
2023-08-04T02:18:18.402Z,20.18
2023-08-04T02:20:47.795Z,20.18
2023-08-04T02:23:16.863Z,20.16
2023-08-04T02:25:46.331Z,20.15
2023-08-04T02:28:15.413Z,20.16
2023-08-04T02:30:47.654Z,20.15
2023-08-04T02:33:17.801Z,20.17
2023-08-04T02:35:48.017Z,20.15
2023-08-04T02:38:17.142Z,20.19
2023-08-04T02:40:46.548Z,20.15
2023-08-04T02:43:15.674Z,20.13
2023-08-04T02:45:50.206Z,20.14
2023-08-04T02:48:19.286Z,20.17
2023-08-04T02:50:48.915Z,20.16
2023-08-04T02:53:17.980Z,20.18
2023-08-04T02:55:47.399Z,20.19
2023-08-04T02:58:16.733Z,20.22
2023-08-04T03:00:46.547Z,20.23
2023-08-04T03:03:17.639Z,20.25
2023-08-04T03:05:47.161Z,20.29
2023-08-04T03:08:25.601Z,20.27
2023-08-04T03:10:55.245Z,20.29
2023-08-04T03:13:25.379Z,20.29
2023-08-04T03:15:58.560Z,20.32
2023-08-04T03:18:29.184Z,20.35
2023-08-04T03:20:59.393Z,20.36
2023-08-04T03:23:28.485Z,20.38
2023-08-04T03:25:57.907Z,20.42
2023-08-04T03:28:27.425Z,20.43
2023-08-04T03:30:59.823Z,20.44
2023-08-04T03:33:31.569Z,20.46
2023-08-04T03:36:01.062Z,20.48
2023-08-04T03:38:30.106Z,20.49
2023-08-04T03:40:59.437Z,20.54
2023-08-04T03:43:28.524Z,20.54
2023-08-04T03:45:57.954Z,20.56
2023-08-04T03:48:27.025Z,20.57
2023-08-04T03:50:57.856Z,20.61
2023-08-04T03:53:26.944Z,20.64
2023-08-04T03:55:56.353Z,20.66
2023-08-04T03:58:29.776Z,20.68
2023-08-04T04:00:59.152Z,20.68
2023-08-04T04:03:28.408Z,20.68
2023-08-04T04:05:59.241Z,20.71
2023-08-04T04:08:28.462Z,20.71
2023-08-04T04:11:00.196Z,20.72
2023-08-04T04:13:29.522Z,20.75
2023-08-04T04:15:58.892Z,20.77
2023-08-04T04:18:27.984Z,20.79
2023-08-04T04:20:58.584Z,20.82
2023-08-04T04:23:29.157Z,20.82
2023-08-04T04:25:58.620Z,20.83
2023-08-04T04:28:31.552Z,20.83
2023-08-04T04:31:05.800Z,20.82
2023-08-04T04:33:35.094Z,20.85
2023-08-04T04:36:04.594Z,20.87
2023-08-04T04:38:35.177Z,20.88
2023-08-04T04:41:04.649Z,20.89
2023-08-04T04:43:36.256Z,20.91
2023-08-04T04:46:06.405Z,20.94
2023-08-04T04:51:21.811Z,20.97
2023-08-04T04:53:52.415Z,21.00
2023-08-04T04:56:23.766Z,21.05
2023-08-04T04:58:52.869Z,21.07
2023-08-04T05:01:25.180Z,21.11
2023-08-04T05:03:54.468Z,21.16
2023-08-04T05:06:23.873Z,21.18
2023-08-04T05:08:55.987Z,21.24
2023-08-04T05:11:25.369Z,21.21
2023-08-04T05:13:54.556Z,21.24
2023-08-04T05:16:24.070Z,21.32
2023-08-04T05:18:53.196Z,21.34
2023-08-04T05:21:22.584Z,21.36
2023-08-04T05:23:51.753Z,21.37
2023-08-04T05:26:22.566Z,21.40
2023-08-04T05:28:51.710Z,21.45
2023-08-04T05:31:22.440Z,21.48
2023-08-04T05:33:51.540Z,21.51
2023-08-04T05:36:20.990Z,21.55
2023-08-04T05:38:50.117Z,21.64
2023-08-04T05:41:21.454Z,21.67
2023-08-04T05:43:52.157Z,21.77
2023-08-04T05:46:22.999Z,21.82
2023-08-04T05:48:54.202Z,21.89
2023-08-04T05:51:23.863Z,21.96
2023-08-04T05:53:53.048Z,21.99
2023-08-04T05:56:22.592Z,22.07
2023-08-04T05:58:53.155Z,22.11
2023-08-04T06:01:22.607Z,22.16
2023-08-04T06:03:51.673Z,22.20
2023-08-04T06:06:21.144Z,22.25
2023-08-04T06:08:50.242Z,22.32
2023-08-04T06:11:19.775Z,22.39
2023-08-04T06:13:49.357Z,22.39
2023-08-04T06:16:20.230Z,22.45
2023-08-04T06:18:49.425Z,22.47
2023-08-04T06:21:18.873Z,22.52
2023-08-04T06:23:47.930Z,22.60
2023-08-04T06:26:20.501Z,22.63
2023-08-04T06:28:49.732Z,22.63
2023-08-04T06:31:24.739Z,22.69
2023-08-04T06:33:56.136Z,22.74
2023-08-04T06:36:26.933Z,22.79
2023-08-04T06:38:57.165Z,22.80
2023-08-04T06:41:26.744Z,22.81
2023-08-04T06:43:56.062Z,22.88
2023-08-04T06:46:30.148Z,22.89
2023-08-04T06:49:01.457Z,22.91
2023-08-04T06:51:33.926Z,22.91
2023-08-04T06:54:06.979Z,22.98
2023-08-04T06:56:36.571Z,23.03
2023-08-04T06:59:05.863Z,23.05
2023-08-04T07:01:36.919Z,23.10
2023-08-04T07:04:06.401Z,23.14
2023-08-04T07:06:35.840Z,23.18
2023-08-04T07:09:05.070Z,23.21
2023-08-04T07:11:34.689Z,23.23
2023-08-04T07:14:06.403Z,23.25
2023-08-04T07:16:39.511Z,23.30
2023-08-04T07:19:10.894Z,23.35
2023-08-04T07:21:40.669Z,23.33
2023-08-04T07:24:10.050Z,23.43
2023-08-04T07:26:39.608Z,23.46
2023-08-04T07:29:14.549Z,23.49
2023-08-04T07:31:54.261Z,23.57
2023-08-04T07:34:23.385Z,23.61
2023-08-04T07:36:52.811Z,23.63
2023-08-04T07:39:21.979Z,23.70
2023-08-04T07:41:51.534Z,23.74
2023-08-04T07:44:20.683Z,23.80
2023-08-04T07:46:51.565Z,23.80
2023-08-04T07:49:20.633Z,23.82
2023-08-04T07:51:50.124Z,23.78
2023-08-04T07:54:19.939Z,23.76
2023-08-04T07:56:49.537Z,23.83
2023-08-04T07:59:18.648Z,23.85
2023-08-04T08:01:48.184Z,23.86
2023-08-04T08:04:18.890Z,23.90
2023-08-04T08:06:48.688Z,23.94
2023-08-04T08:09:19.759Z,23.95
2023-08-04T08:11:51.123Z,24.00
2023-08-04T08:14:21.100Z,24.05
2023-08-04T08:16:50.600Z,24.11
2023-08-04T08:19:21.202Z,24.15
2023-08-04T08:21:50.932Z,24.18
2023-08-04T08:24:20.232Z,24.24
2023-08-04T08:26:49.757Z,24.30
2023-08-04T08:29:19.793Z,24.27
2023-08-04T08:31:51.465Z,24.23
2023-08-04T08:34:22.479Z,24.22
2023-08-04T08:36:52.009Z,24.25
2023-08-04T08:39:22.012Z,24.20
2023-08-04T08:41:51.590Z,24.20
2023-08-04T08:44:21.182Z,24.29
2023-08-04T08:46:50.617Z,24.29
2023-08-04T08:49:19.753Z,24.34
2023-08-04T08:51:53.242Z,24.43
2023-08-04T08:54:22.540Z,24.47
2023-08-04T08:56:52.580Z,24.52
2023-08-04T08:59:21.689Z,24.50
2023-08-04T09:01:51.256Z,24.46
2023-08-04T09:04:20.779Z,24.42
2023-08-04T09:06:51.607Z,24.45
2023-08-04T09:09:21.344Z,24.40
2023-08-04T09:11:50.825Z,24.42
2023-08-04T09:14:20.487Z,24.44
2023-08-04T09:16:50.051Z,24.54
2023-08-04T09:19:21.370Z,24.66
2023-08-04T09:21:52.192Z,24.68
2023-08-04T09:24:21.472Z,24.54
2023-08-04T09:26:51.031Z,24.55
2023-08-04T09:29:20.315Z,24.54
2023-08-04T09:31:50.628Z,24.54
2023-08-04T09:34:20.048Z,24.62
2023-08-04T09:36:50.057Z,24.67
2023-08-04T09:39:20.618Z,24.79
2023-08-04T09:41:51.961Z,24.73
2023-08-04T09:44:21.411Z,24.74
2023-08-04T09:46:51.325Z,24.82
2023-08-04T09:49:20.988Z,24.88
2023-08-04T09:51:52.258Z,24.97
2023-08-04T09:54:22.941Z,25.02
2023-08-04T09:56:52.454Z,25.07
2023-08-04T09:59:21.640Z,25.03
2023-08-04T10:01:51.259Z,25.03
2023-08-04T10:04:22.620Z,24.99
2023-08-04T10:06:54.533Z,25.00
2023-08-04T10:09:25.316Z,24.99
2023-08-04T10:11:55.121Z,25.09
2023-08-04T10:14:24.299Z,25.11
2023-08-04T10:16:53.831Z,25.18
2023-08-04T10:19:25.071Z,25.23
2023-08-04T10:21:54.616Z,25.34
2023-08-04T10:24:23.747Z,25.46
2023-08-04T10:26:54.901Z,25.58
2023-08-04T10:29:32.994Z,25.60
2023-08-04T10:32:04.832Z,25.67
2023-08-04T10:34:34.479Z,25.72
2023-08-04T10:37:05.982Z,25.78
2023-08-04T10:39:35.903Z,25.81
2023-08-04T10:42:16.667Z,25.83
2023-08-04T10:44:49.590Z,25.88
2023-08-04T10:47:30.690Z,25.95
2023-08-04T10:50:00.003Z,25.81
2023-08-04T10:52:30.587Z,25.97
2023-08-04T10:55:01.516Z,26.00
2023-08-04T10:57:33.733Z,25.99
2023-08-04T11:00:06.719Z,26.11
2023-08-04T11:02:36.517Z,26.19
2023-08-04T11:05:06.567Z,26.23
2023-08-04T11:07:36.547Z,26.23
2023-08-04T11:10:08.711Z,26.31
2023-08-04T11:12:39.682Z,26.41
2023-08-04T11:15:11.745Z,26.49
2023-08-04T11:17:42.082Z,26.61
2023-08-04T11:20:30.704Z,26.67
2023-08-04T11:23:02.674Z,26.66
2023-08-04T11:25:34.115Z,26.74
2023-08-04T11:28:05.546Z,26.78
2023-08-04T11:30:35.493Z,26.69
2023-08-04T11:33:05.129Z,26.50
2023-08-04T11:35:34.386Z,26.57
2023-08-04T11:38:04.619Z,26.60
2023-08-04T11:40:33.761Z,26.61
2023-08-04T11:43:03.598Z,26.65
2023-08-04T11:45:34.305Z,26.68
2023-08-04T11:48:03.765Z,26.67
2023-08-04T11:50:32.871Z,26.70
2023-08-04T11:53:02.231Z,26.75
2023-08-04T11:55:31.304Z,26.69
2023-08-04T11:58:00.893Z,26.63
2023-08-04T12:00:37.974Z,26.66
2023-08-04T12:03:07.617Z,26.70
2023-08-04T12:05:39.530Z,26.75
2023-08-04T12:08:12.877Z,26.80
2023-08-04T12:10:42.202Z,26.80
2023-08-04T12:13:11.992Z,26.82
2023-08-04T12:15:55.905Z,26.88
2023-08-04T12:18:27.424Z,26.88
2023-08-04T12:20:57.889Z,27.01
2023-08-04T12:23:27.530Z,27.07
2023-08-04T12:25:56.688Z,27.08
2023-08-04T12:28:26.137Z,27.18
2023-08-04T12:33:29.048Z,27.39
2023-08-04T12:35:58.107Z,27.50
2023-08-04T12:38:27.556Z,27.48
2023-08-04T12:40:56.759Z,27.58
2023-08-04T12:43:26.200Z,27.68
2023-08-04T12:45:55.440Z,27.79
2023-08-04T12:48:25.013Z,27.90
2023-08-04T12:50:55.607Z,27.99
2023-08-04T12:53:25.064Z,28.08
2023-08-04T12:55:54.236Z,28.22
2023-08-04T12:58:23.738Z,28.33
2023-08-04T13:00:53.249Z,28.45
2023-08-04T13:03:22.718Z,28.44
2023-08-04T13:05:51.870Z,28.51
2023-08-04T13:08:22.772Z,28.64
2023-08-04T13:10:51.852Z,28.72
2023-08-04T13:13:21.303Z,28.68
2023-08-04T13:15:51.407Z,28.70
2023-08-04T13:18:20.867Z,28.62
2023-08-04T13:20:51.038Z,28.55
2023-08-04T13:23:20.570Z,28.46
2023-08-04T13:25:51.267Z,28.38
2023-08-04T13:28:20.723Z,28.27
2023-08-04T13:30:49.827Z,28.14
2023-08-04T13:33:19.298Z,28.06
2023-08-04T13:35:48.424Z,28.00
2023-08-04T13:38:17.842Z,27.90
2023-08-04T13:40:46.993Z,27.81
2023-08-04T13:43:18.574Z,27.67
2023-08-04T13:45:47.815Z,27.56
2023-08-04T13:48:17.342Z,27.49
2023-08-04T13:50:46.454Z,27.42
2023-08-04T13:53:16.028Z,27.22
2023-08-04T13:55:45.183Z,27.00
2023-08-04T13:58:14.657Z,26.82
2023-08-04T14:00:45.137Z,26.66
2023-08-04T14:03:14.621Z,26.49
2023-08-04T14:05:43.709Z,26.31
2023-08-04T14:08:13.156Z,26.14
2023-08-04T14:10:42.281Z,25.98
2023-08-04T14:13:12.118Z,25.77
2023-08-04T14:15:41.147Z,25.61
2023-08-04T14:18:12.019Z,25.56
2023-08-04T14:20:41.262Z,25.52
2023-08-04T14:23:10.863Z,25.53
2023-08-04T14:25:40.084Z,25.46
2023-08-04T14:28:09.624Z,25.50
2023-08-04T14:30:41.385Z,25.42
2023-08-04T14:33:12.234Z,25.45
2023-08-04T14:35:41.251Z,25.40
2023-08-04T14:38:10.693Z,25.35
2023-08-04T14:40:39.873Z,25.30
2023-08-04T14:43:09.257Z,25.24
2023-08-04T14:45:38.383Z,25.22
2023-08-04T14:48:07.869Z,25.18
2023-08-04T14:50:41.900Z,25.16
2023-08-04T14:53:11.601Z,25.13
2023-08-04T14:55:40.726Z,25.16
2023-08-04T14:58:10.495Z,25.29
2023-08-04T15:00:39.655Z,25.44
2023-08-04T15:03:09.192Z,25.68
2023-08-04T15:05:38.354Z,25.99
2023-08-04T15:08:09.279Z,26.31
2023-08-04T15:10:38.335Z,26.56
2023-08-04T15:13:07.663Z,26.73
2023-08-04T15:15:36.704Z,26.95
2023-08-04T15:18:06.261Z,26.99
2023-08-04T15:20:35.373Z,26.98
2023-08-04T15:23:04.797Z,27.08
2023-08-04T15:25:35.384Z,27.23
2023-08-04T15:28:04.930Z,27.51
2023-08-04T15:30:35.921Z,27.85
2023-08-04T15:33:05.465Z,28.20
2023-08-04T15:35:34.752Z,28.43
2023-08-04T15:38:04.626Z,28.54
2023-08-04T15:40:33.934Z,28.54
2023-08-04T15:43:04.803Z,28.49
2023-08-04T15:45:33.965Z,28.39
2023-08-04T15:48:03.631Z,28.34
2023-08-04T15:50:32.786Z,28.31
2023-08-04T15:53:02.255Z,28.34
2023-08-04T15:55:31.314Z,28.41
2023-08-04T15:58:00.770Z,28.50
2023-08-04T16:00:31.277Z,28.38
2023-08-04T16:03:00.654Z,28.27
2023-08-04T16:05:29.747Z,28.14
2023-08-04T16:07:59.205Z,28.02
2023-08-04T16:10:28.218Z,27.84
2023-08-04T16:12:57.632Z,27.70
2023-08-04T16:15:26.805Z,27.60
2023-08-04T16:17:57.657Z,27.49
2023-08-04T16:20:26.762Z,27.39
2023-08-04T16:22:57.046Z,27.31
2023-08-04T16:25:27.375Z,27.27
2023-08-04T16:27:56.822Z,27.15
2023-08-04T16:30:25.906Z,27.02
2023-08-04T16:32:55.390Z,26.89
2023-08-04T16:35:25.876Z,26.80
2023-08-04T16:37:55.318Z,26.70
2023-08-04T16:40:24.458Z,26.65
2023-08-04T16:42:53.980Z,26.57
2023-08-04T16:45:25.322Z,26.54
2023-08-04T16:47:55.659Z,26.50
2023-08-04T16:50:26.265Z,26.50
2023-08-04T16:52:55.772Z,26.46
2023-08-04T16:55:24.813Z,26.42
2023-08-04T16:57:54.295Z,26.34
2023-08-04T17:00:24.196Z,26.27
2023-08-04T17:02:53.744Z,26.19
2023-08-04T17:05:23.214Z,26.09
2023-08-04T17:07:54.069Z,26.05
2023-08-04T17:10:23.194Z,26.01
2023-08-04T17:12:52.560Z,25.97
2023-08-04T17:15:35.097Z,25.91
2023-08-04T17:18:06.301Z,25.90
2023-08-04T17:20:35.463Z,25.82
2023-08-04T17:23:06.251Z,25.75
2023-08-04T17:25:35.370Z,25.70
2023-08-04T17:28:04.987Z,25.69
2023-08-04T17:30:34.048Z,25.60
2023-08-04T17:33:03.499Z,25.63
2023-08-04T17:35:32.674Z,25.52
2023-08-04T17:38:02.113Z,25.53
2023-08-04T17:40:32.566Z,25.46
2023-08-04T17:43:02.070Z,25.50
2023-08-04T17:45:31.443Z,25.47
2023-08-04T17:48:00.903Z,25.47
2023-08-04T17:50:30.060Z,25.39
2023-08-04T17:52:59.462Z,25.30
2023-08-04T17:55:28.576Z,25.29
2023-08-04T17:57:59.447Z,25.33
2023-08-04T18:00:28.560Z,25.32
2023-08-04T18:02:58.015Z,25.27
2023-08-04T18:05:27.226Z,25.24
2023-08-04T18:07:56.729Z,25.19
2023-08-04T18:10:25.901Z,25.18
2023-08-04T18:12:55.386Z,25.12
2023-08-04T18:15:25.930Z,25.09
2023-08-04T18:17:55.355Z,25.09
2023-08-04T18:20:24.460Z,25.06
2023-08-04T18:22:53.891Z,25.02
2023-08-04T18:25:22.977Z,25.01
2023-08-04T18:27:52.339Z,24.98
2023-08-04T18:30:21.569Z,24.93
2023-08-04T18:32:52.787Z,24.88
2023-08-04T18:35:21.971Z,24.86
2023-08-04T18:37:51.338Z,24.83
2023-08-04T18:40:20.472Z,24.81
2023-08-04T18:42:49.838Z,24.78
2023-08-04T18:45:18.980Z,24.71
2023-08-04T18:47:48.546Z,24.67
2023-08-04T18:50:19.077Z,24.61
2023-08-04T18:52:48.441Z,24.57
2023-08-04T18:55:17.591Z,24.53
2023-08-04T18:57:47.073Z,24.46
2023-08-04T19:00:16.270Z,24.45
2023-08-04T19:02:46.253Z,24.37
2023-08-04T19:05:15.467Z,24.31
2023-08-04T19:07:47.278Z,24.27
2023-08-04T19:10:16.351Z,24.21
2023-08-04T19:12:46.560Z,24.15
2023-08-04T19:15:15.643Z,24.10
2023-08-04T19:17:45.096Z,24.05
2023-08-04T19:20:14.368Z,23.99
2023-08-04T19:22:44.168Z,23.93
2023-08-04T19:25:14.794Z,23.89
2023-08-04T19:27:44.178Z,23.81
2023-08-04T19:30:13.478Z,23.78
2023-08-04T19:32:42.950Z,23.75
2023-08-04T19:35:12.063Z,23.70
2023-08-04T19:37:41.463Z,23.66
2023-08-04T19:40:10.904Z,23.65
2023-08-04T19:42:41.818Z,23.59
2023-08-04T19:45:11.011Z,23.55
2023-08-04T19:47:40.544Z,23.52
2023-08-04T19:50:10.063Z,23.47
2023-08-04T19:52:39.604Z,23.44
2023-08-04T19:55:10.652Z,23.39
2023-08-04T19:57:44.457Z,23.38
2023-08-04T20:00:14.219Z,23.32
2023-08-04T20:02:43.752Z,23.24
2023-08-04T20:05:12.987Z,23.21
2023-08-04T20:07:42.369Z,23.18
2023-08-04T20:10:11.969Z,23.11
2023-08-04T20:12:41.500Z,23.06
2023-08-04T20:15:12.417Z,23.03
2023-08-04T20:17:42.089Z,22.98
2023-08-04T20:20:11.585Z,22.94
2023-08-04T20:22:40.988Z,22.85
2023-08-04T20:25:10.295Z,22.81
2023-08-04T20:27:39.755Z,22.78
2023-08-04T20:30:09.495Z,22.75
2023-08-04T20:32:40.522Z,22.74
2023-08-04T20:35:09.936Z,22.73
2023-08-04T20:37:39.398Z,22.72
2023-08-04T20:40:09.254Z,22.68
2023-08-04T20:42:38.714Z,22.67
2023-08-04T20:45:08.481Z,22.64
2023-08-04T20:47:37.947Z,22.66
2023-08-04T20:50:09.472Z,22.61
2023-08-04T20:52:38.977Z,22.59
2023-08-04T20:55:08.972Z,22.52
2023-08-04T20:57:38.410Z,22.50
2023-08-04T21:00:09.433Z,22.47
2023-08-04T21:02:38.972Z,22.46
2023-08-04T21:05:10.858Z,22.47
2023-08-04T21:07:40.334Z,22.46
2023-08-04T21:10:09.688Z,22.44
2023-08-04T21:12:39.089Z,22.41
2023-08-04T21:15:09.034Z,22.40
2023-08-04T21:17:41.216Z,22.38
2023-08-04T21:20:16.338Z,22.36
2023-08-04T21:22:45.812Z,22.34
2023-08-04T21:25:15.192Z,22.32
2023-08-04T21:27:45.149Z,22.30
2023-08-04T21:30:14.250Z,22.28
2023-08-04T21:32:43.689Z,22.28
2023-08-04T21:35:14.241Z,22.26
2023-08-04T21:37:43.652Z,22.22
2023-08-04T21:40:13.098Z,22.22
2023-08-04T21:42:42.504Z,22.20
2023-08-04T21:45:11.856Z,22.18
2023-08-04T21:47:41.568Z,22.17
2023-08-04T21:50:10.898Z,22.16
2023-08-04T21:52:41.829Z,22.13
2023-08-04T21:55:10.889Z,22.10
2023-08-04T21:57:40.353Z,22.07
2023-08-04T22:00:14.104Z,22.02
2023-08-04T22:02:45.871Z,21.99
2023-08-04T22:05:16.994Z,21.96
2023-08-04T22:07:47.854Z,21.93
2023-08-04T22:10:16.941Z,21.89
2023-08-04T22:12:47.201Z,21.84
2023-08-04T22:15:16.294Z,21.78
2023-08-04T22:17:45.793Z,21.73
2023-08-04T22:20:14.949Z,21.72
2023-08-04T22:22:44.366Z,21.70
2023-08-04T22:25:14.871Z,21.68
2023-08-04T22:27:44.276Z,21.66
2023-08-04T22:30:13.641Z,21.62
2023-08-04T22:32:43.069Z,21.58
2023-08-04T22:35:12.175Z,21.55
2023-08-04T22:37:41.773Z,21.51
2023-08-04T22:40:11.048Z,21.46
2023-08-04T22:42:41.839Z,21.40
2023-08-04T22:45:11.350Z,21.34
2023-08-04T22:47:40.899Z,21.30
2023-08-04T22:50:10.691Z,21.24
2023-08-04T22:52:40.111Z,21.22
2023-08-04T22:55:09.642Z,21.19
2023-08-04T22:57:39.119Z,21.18
2023-08-04T23:00:10.470Z,21.15
2023-08-04T23:02:40.036Z,21.06
2023-08-04T23:05:09.473Z,21.01
2023-08-04T23:07:38.916Z,21.00
2023-08-04T23:10:08.567Z,20.93
2023-08-04T23:12:38.831Z,20.92
2023-08-04T23:15:10.421Z,20.88
2023-08-04T23:17:40.011Z,20.86
2023-08-04T23:20:09.602Z,20.85
2023-08-04T23:22:39.046Z,20.85
2023-08-04T23:25:08.311Z,20.83
2023-08-04T23:27:37.664Z,20.83
2023-08-04T23:30:07.496Z,20.82
2023-08-04T23:32:38.421Z,20.83
2023-08-04T23:35:08.095Z,20.83
2023-08-04T23:37:37.531Z,20.81
2023-08-04T23:40:07.313Z,20.82
2023-08-04T23:42:36.807Z,20.80
2023-08-04T23:45:06.387Z,20.81
2023-08-04T23:47:35.898Z,20.79
2023-08-04T23:50:07.233Z,20.77
2023-08-04T23:52:36.735Z,20.75
2023-08-04T23:55:06.095Z,20.75
2023-08-04T23:57:35.481Z,20.74
